sensor_id;sensor_type;location;lat;lon;timestamp;pressure;altitude;pressure_sealevel;temperature;humidity
42247;BME280;27913;42.722;23.268;2022-12-17T00:00:18;94767.56;;;5.84;100.00
42247;BME280;27913;42.722;23.268;2022-12-17T00:03:02;94729.25;;;5.42;100.00
42247;BME280;27913;42.722;23.268;2022-12-17T00:05:46;94634.69;;;4.99;100.00
42247;BME280;27913;42.722;23.268;2022-12-17T00:08:30;94719.78;;;5.41;100.00
42247;BME280;27913;42.722;23.268;2022-12-17T00:11:14;94759.22;;;5.47;100.00
42247;BME280;27913;42.722;23.268;2022-12-17T00:13:58;94783.69;;;5.62;100.00
42247;BME280;27913;42.722;23.268;2022-12-17T00:16:42;94691.03;;;5.08;100.00
42247;BME280;27913;42.722;23.268;2022-12-17T00:19:26;94786.31;;;5.62;100.00
42247;BME280;27913;42.722;23.268;2022-12-17T00:22:10;94528.03;;;4.12;100.00
42247;BME280;27913;42.722;23.268;2022-12-17T00:24:54;94743.72;;;5.37;100.00
42247;BME280;27913;42.722;23.268;2022-12-17T00:27:38;94760.88;;;5.48;100.00
42247;BME280;27913;42.722;23.268;2022-12-17T00:30:22;94743.72;;;5.28;100.00
42247;BME280;27913;42.722;23.268;2022-12-17T00:33:06;94709.00;;;5.19;100.00
42247;BME280;27913;42.722;23.268;2022-12-17T00:35:51;94780.28;;;5.53;100.00
42247;BME280;27913;42.722;23.268;2022-12-17T00:38:35;94700.69;;;5.16;100.00
42247;BME280;27913;42.722;23.268;2022-12-17T00:41:20;94759.56;;;5.52;100.00
42247;BME280;27913;42.722;23.268;2022-12-17T00:44:03;94761.66;;;5.48;100.00
42247;BME280;27913;42.722;23.268;2022-12-17T00:46:47;94768.19;;;5.36;100.00
42247;BME280;27913;42.722;23.268;2022-12-17T00:49:31;94697.41;;;5.05;100.00
42247;BME280;27913;42.722;23.268;2022-12-17T00:52:15;94761.16;;;5.36;100.00
42247;BME280;27913;42.722;23.268;2022-12-17T00:54:59;94708.19;;;5.19;100.00
42247;BME280;27913;42.722;23.268;2022-12-17T00:57:43;94754.50;;;5.50;100.00
42247;BME280;27913;42.722;23.268;2022-12-17T01:00:27;94516.44;;;3.98;100.00
42247;BME280;27913;42.722;23.268;2022-12-17T01:03:20;94658.09;;;4.90;100.00
42247;BME280;27913;42.722;23.268;2022-12-17T01:06:04;94569.59;;;4.30;100.00
42247;BME280;27913;42.722;23.268;2022-12-17T01:08:48;94554.84;;;4.04;100.00
42247;BME280;27913;42.722;23.268;2022-12-17T01:11:33;94769.16;;;5.43;100.00
42247;BME280;27913;42.722;23.268;2022-12-17T01:14:16;94770.16;;;5.42;100.00
42247;BME280;27913;42.722;23.268;2022-12-17T01:17:00;94773.25;;;5.46;100.00
42247;BME280;27913;42.722;23.268;2022-12-17T01:19:45;94781.06;;;5.46;100.00
42247;BME280;27913;42.722;23.268;2022-12-17T01:22:39;94767.22;;;5.45;100.00
42247;BME280;27913;42.722;23.268;2022-12-17T01:25:24;94581.28;;;4.26;100.00
42247;BME280;27913;42.722;23.268;2022-12-17T01:28:08;94755.00;;;5.46;100.00
42247;BME280;27913;42.722;23.268;2022-12-17T01:30:52;94526.03;;;3.97;100.00
42247;BME280;27913;42.722;23.268;2022-12-17T01:33:36;94607.72;;;4.56;100.00
42247;BME280;27913;42.722;23.268;2022-12-17T01:36:20;94717.78;;;5.18;100.00
42247;BME280;27913;42.722;23.268;2022-12-17T01:39:04;94443.31;;;3.49;100.00
42247;BME280;27913;42.722;23.268;2022-12-17T01:41:48;94756.31;;;5.50;100.00
42247;BME280;27913;42.722;23.268;2022-12-17T01:47:23;94692.03;;;5.07;100.00
42247;BME280;27913;42.722;23.268;2022-12-17T01:50:07;94743.41;;;5.48;100.00
42247;BME280;27913;42.722;23.268;2022-12-17T01:52:54;94658.59;;;4.86;100.00
42247;BME280;27913;42.722;23.268;2022-12-17T01:55:40;94644.13;;;5.00;100.00
42247;BME280;27913;42.722;23.268;2022-12-17T01:58:24;94727.78;;;5.65;100.00
42247;BME280;27913;42.722;23.268;2022-12-17T02:01:08;94553.38;;;4.53;100.00
42247;BME280;27913;42.722;23.268;2022-12-17T02:03:53;94571.28;;;4.56;100.00
42247;BME280;27913;42.722;23.268;2022-12-17T02:06:42;94736.25;;;5.67;100.00
42247;BME280;27913;42.722;23.268;2022-12-17T02:09:42;94723.88;;;5.69;100.00
42247;BME280;27913;42.722;23.268;2022-12-17T02:12:38;94750.78;;;5.70;100.00
42247;BME280;27913;42.722;23.268;2022-12-17T02:15:33;94742.31;;;5.67;100.00
42247;BME280;27913;42.722;23.268;2022-12-17T02:18:25;94627.03;;;4.97;100.00
42247;BME280;27913;42.722;23.268;2022-12-17T02:21:11;94741.16;;;5.70;100.00
42247;BME280;27913;42.722;23.268;2022-12-17T02:24:11;94655.06;;;5.20;100.00
42247;BME280;27913;42.722;23.268;2022-12-17T02:27:03;94744.25;;;5.74;100.00
42247;BME280;27913;42.722;23.268;2022-12-17T02:29:50;94730.38;;;5.65;100.00
42247;BME280;27913;42.722;23.268;2022-12-17T02:32:38;94734.13;;;5.54;100.00
42247;BME280;27913;42.722;23.268;2022-12-17T02:35:27;94606.13;;;4.80;100.00
42247;BME280;27913;42.722;23.268;2022-12-17T02:38:20;94656.84;;;5.11;100.00
42247;BME280;27913;42.722;23.268;2022-12-17T02:41:07;94720.94;;;5.64;100.00
42247;BME280;27913;42.722;23.268;2022-12-17T02:43:53;94734.78;;;5.64;100.00
42247;BME280;27913;42.722;23.268;2022-12-17T02:46:40;94711.00;;;5.67;100.00
42247;BME280;27913;42.722;23.268;2022-12-17T02:49:25;94576.34;;;5.00;100.00
42247;BME280;27913;42.722;23.268;2022-12-17T02:52:09;94698.44;;;5.79;100.00
42247;BME280;27913;42.722;23.268;2022-12-17T02:54:54;94679.34;;;5.79;100.00
42247;BME280;27913;42.722;23.268;2022-12-17T02:57:38;94556.16;;;5.02;100.00
42247;BME280;27913;42.722;23.268;2022-12-17T03:00:22;94356.56;;;3.84;100.00
42247;BME280;27913;42.722;23.268;2022-12-17T03:03:06;94570.66;;;5.13;100.00
42247;BME280;27913;42.722;23.268;2022-12-17T03:05:50;94498.00;;;4.76;100.00
42247;BME280;27913;42.722;23.268;2022-12-17T03:08:34;94668.41;;;5.84;100.00
42247;BME280;27913;42.722;23.268;2022-12-17T03:11:18;94671.50;;;5.79;100.00
42247;BME280;27913;42.722;23.268;2022-12-17T03:14:02;94673.13;;;5.80;100.00
42247;BME280;27913;42.722;23.268;2022-12-17T03:16:46;94690.91;;;5.76;100.00
42247;BME280;27913;42.722;23.268;2022-12-17T03:19:30;94673.94;;;5.80;100.00
42247;BME280;27913;42.722;23.268;2022-12-17T03:22:14;94686.00;;;5.82;100.00
42247;BME280;27913;42.722;23.268;2022-12-17T03:24:58;94681.44;;;5.84;100.00
42247;BME280;27913;42.722;23.268;2022-12-17T03:27:42;94604.72;;;5.44;100.00
42247;BME280;27913;42.722;23.268;2022-12-17T03:30:26;94621.16;;;5.53;100.00
42247;BME280;27913;42.722;23.268;2022-12-17T03:33:10;94677.84;;;5.93;100.00
42247;BME280;27913;42.722;23.268;2022-12-17T03:35:54;94652.41;;;5.78;100.00
42247;BME280;27913;42.722;23.268;2022-12-17T03:38:38;94448.53;;;4.51;100.00
42247;BME280;27913;42.722;23.268;2022-12-17T03:41:22;94682.91;;;5.86;100.00
42247;BME280;27913;42.722;23.268;2022-12-17T03:44:06;94665.78;;;5.84;100.00
42247;BME280;27913;42.722;23.268;2022-12-17T03:46:50;94662.72;;;5.72;100.00
42247;BME280;27913;42.722;23.268;2022-12-17T03:49:34;94676.22;;;5.84;100.00
42247;BME280;27913;42.722;23.268;2022-12-17T03:52:18;94603.91;;;5.36;100.00
42247;BME280;27913;42.722;23.268;2022-12-17T03:55:02;94696.00;;;5.78;100.00
42247;BME280;27913;42.722;23.268;2022-12-17T03:57:46;94355.75;;;3.75;100.00
42247;BME280;27913;42.722;23.268;2022-12-17T04:00:31;94621.50;;;5.34;100.00
42247;BME280;27913;42.722;23.268;2022-12-17T04:03:14;94674.94;;;5.79;100.00
42247;BME280;27913;42.722;23.268;2022-12-17T04:05:58;94668.72;;;5.80;100.00
42247;BME280;27913;42.722;23.268;2022-12-17T04:08:42;94682.28;;;5.84;100.00
42247;BME280;27913;42.722;23.268;2022-12-17T04:11:26;94598.16;;;5.49;100.00
42247;BME280;27913;42.722;23.268;2022-12-17T04:14:10;94610.06;;;5.60;100.00
42247;BME280;27913;42.722;23.268;2022-12-17T04:16:54;94694.16;;;6.03;100.00
42247;BME280;27913;42.722;23.268;2022-12-17T04:19:38;94660.88;;;5.89;100.00
42247;BME280;27913;42.722;23.268;2022-12-17T04:22:22;94690.72;;;6.03;100.00
42247;BME280;27913;42.722;23.268;2022-12-17T04:25:06;94686.47;;;6.02;100.00
42247;BME280;27913;42.722;23.268;2022-12-17T04:27:50;94366.03;;;4.02;100.00
42247;BME280;27913;42.722;23.268;2022-12-17T04:30:34;94560.69;;;5.33;100.00
42247;BME280;27913;42.722;23.268;2022-12-17T04:33:18;94678.66;;;6.10;100.00
42247;BME280;27913;42.722;23.268;2022-12-17T04:36:02;94681.44;;;6.09;100.00
42247;BME280;27913;42.722;23.268;2022-12-17T04:38:46;94687.47;;;6.09;100.00
42247;BME280;27913;42.722;23.268;2022-12-17T04:41:30;94695.81;;;6.13;100.00
42247;BME280;27913;42.722;23.268;2022-12-17T04:44:14;94674.72;;;6.23;100.00
42247;BME280;27913;42.722;23.268;2022-12-17T04:46:58;94704.44;;;6.22;100.00
42247;BME280;27913;42.722;23.268;2022-12-17T04:49:42;94712.75;;;6.25;100.00
42247;BME280;27913;42.722;23.268;2022-12-17T04:52:26;94702.13;;;6.27;100.00
42247;BME280;27913;42.722;23.268;2022-12-17T04:55:10;94636.09;;;5.76;100.00
42247;BME280;27913;42.722;23.268;2022-12-17T04:57:54;94704.44;;;6.13;100.00
42247;BME280;27913;42.722;23.268;2022-12-17T05:00:43;94622.94;;;5.61;100.00
42247;BME280;27913;42.722;23.268;2022-12-17T05:03:27;94716.47;;;6.31;100.00
42247;BME280;27913;42.722;23.268;2022-12-17T05:06:11;94728.53;;;6.40;100.00
42247;BME280;27913;42.722;23.268;2022-12-17T05:08:55;94512.50;;;5.04;100.00
42247;BME280;27913;42.722;23.268;2022-12-17T05:11:39;94737.16;;;6.49;100.00
42247;BME280;27913;42.722;23.268;2022-12-17T05:14:23;94748.28;;;6.51;100.00
42247;BME280;27913;42.722;23.268;2022-12-17T05:17:07;94737.47;;;6.55;100.00
42247;BME280;27913;42.722;23.268;2022-12-17T05:19:51;94609.47;;;5.98;100.00
42247;BME280;27913;42.722;23.268;2022-12-17T05:22:35;94458.91;;;4.93;100.00
42247;BME280;27913;42.722;23.268;2022-12-17T05:25:19;94739.56;;;6.68;100.00
42247;BME280;27913;42.722;23.268;2022-12-17T05:28:03;94672.50;;;6.43;100.00
42247;BME280;27913;42.722;23.268;2022-12-17T05:30:54;94601.50;;;5.91;100.00
42247;BME280;27913;42.722;23.268;2022-12-17T05:33:39;94745.56;;;6.76;100.00
42247;BME280;27913;42.722;23.268;2022-12-17T05:36:23;94671.41;;;6.37;100.00
42247;BME280;27913;42.722;23.268;2022-12-17T05:39:07;94583.56;;;5.88;100.00
42247;BME280;27913;42.722;23.268;2022-12-17T05:41:52;94444.53;;;5.14;100.00
42247;BME280;27913;42.722;23.268;2022-12-17T05:44:36;94729.38;;;6.81;100.00
42247;BME280;27913;42.722;23.268;2022-12-17T05:47:20;94754.38;;;6.75;100.00
42247;BME280;27913;42.722;23.268;2022-12-17T05:50:04;94578.22;;;5.81;100.00
42247;BME280;27913;42.722;23.268;2022-12-17T05:52:48;94765.47;;;6.86;100.00
42247;BME280;27913;42.722;23.268;2022-12-17T05:55:32;94752.03;;;6.89;100.00
42247;BME280;27913;42.722;23.268;2022-12-17T05:58:16;94759.53;;;7.00;100.00
42247;BME280;27913;42.722;23.268;2022-12-17T06:01:03;94763.59;;;7.03;100.00
42247;BME280;27913;42.722;23.268;2022-12-17T06:03:47;94755.41;;;7.06;100.00
42247;BME280;27913;42.722;23.268;2022-12-17T06:06:32;94773.25;;;6.94;100.00
42247;BME280;27913;42.722;23.268;2022-12-17T06:09:16;94771.38;;;6.80;100.00
42247;BME280;27913;42.722;23.268;2022-12-17T06:12:00;94766.00;;;6.64;100.00
42247;BME280;27913;42.722;23.268;2022-12-17T06:14:44;94714.38;;;6.10;100.00
42247;BME280;27913;42.722;23.268;2022-12-17T06:17:28;94634.84;;;5.55;100.00
42247;BME280;27913;42.722;23.268;2022-12-17T06:20:12;94787.31;;;6.45;100.00
42247;BME280;27913;42.722;23.268;2022-12-17T06:23:01;94492.16;;;4.66;100.00
42247;BME280;27913;42.722;23.268;2022-12-17T06:25:45;94800.50;;;6.60;100.00
42247;BME280;27913;42.722;23.268;2022-12-17T06:28:30;94796.41;;;6.66;100.00
42247;BME280;27913;42.722;23.268;2022-12-17T06:31:14;94795.06;;;6.70;100.00
42247;BME280;27913;42.722;23.268;2022-12-17T06:33:58;94793.63;;;6.67;100.00
42247;BME280;27913;42.722;23.268;2022-12-17T06:36:43;94496.22;;;4.85;100.00
42247;BME280;27913;42.722;23.268;2022-12-17T06:39:27;94794.34;;;6.93;100.00
42247;BME280;27913;42.722;23.268;2022-12-17T06:42:11;94817.88;;;7.01;100.00
42247;BME280;27913;42.722;23.268;2022-12-17T06:44:56;94641.63;;;5.98;100.00
42247;BME280;27913;42.722;23.268;2022-12-17T06:47:40;94772.84;;;6.74;100.00
42247;BME280;27913;42.722;23.268;2022-12-17T06:50:24;94811.25;;;7.22;100.00
42247;BME280;27913;42.722;23.268;2022-12-17T06:53:09;94527.13;;;5.38;100.00
42247;BME280;27913;42.722;23.268;2022-12-17T06:55:56;94801.19;;;7.02;100.00
42247;BME280;27913;42.722;23.268;2022-12-17T06:58:40;94827.69;;;6.99;100.00
42247;BME280;27913;42.722;23.268;2022-12-17T07:01:24;94939.66;;;7.44;100.00
42247;BME280;27913;42.722;23.268;2022-12-17T07:04:08;94888.75;;;7.15;100.00
42247;BME280;27913;42.722;23.268;2022-12-17T07:06:53;94700.06;;;6.06;100.00
42247;BME280;27913;42.722;23.268;2022-12-17T07:09:37;94908.22;;;7.60;100.00
42247;BME280;27913;42.722;23.268;2022-12-17T07:12:21;94896.41;;;7.65;100.00
42247;BME280;27913;42.722;23.268;2022-12-17T07:15:05;94661.19;;;6.02;100.00
42247;BME280;27913;42.722;23.268;2022-12-17T07:17:56;94912.78;;;7.58;100.00
42247;BME280;27913;42.722;23.268;2022-12-17T07:20:40;94928.84;;;7.55;100.00
42247;BME280;27913;42.722;23.268;2022-12-17T07:23:24;94849.53;;;7.15;100.00
42247;BME280;27913;42.722;23.268;2022-12-17T07:26:08;94849.75;;;7.36;100.00
42247;BME280;27913;42.722;23.268;2022-12-17T07:28:52;94788.38;;;7.16;100.00
42247;BME280;27913;42.722;23.268;2022-12-17T07:31:36;94837.66;;;7.91;100.00
42247;BME280;27913;42.722;23.268;2022-12-17T07:34:20;94842.91;;;8.14;100.00
42247;BME280;27913;42.722;23.268;2022-12-17T07:37:04;94847.34;;;8.52;100.00
42247;BME280;27913;42.722;23.268;2022-12-17T07:39:48;94760.09;;;8.28;100.00
42247;BME280;27913;42.722;23.268;2022-12-17T07:42:32;94815.34;;;8.96;100.00
42247;BME280;27913;42.722;23.268;2022-12-17T07:45:18;94793.78;;;9.00;100.00
42247;BME280;27913;42.722;23.268;2022-12-17T07:48:02;94828.53;;;8.87;100.00
42247;BME280;27913;42.722;23.268;2022-12-17T07:50:49;94790.81;;;8.58;100.00
42247;BME280;27913;42.722;23.268;2022-12-17T07:53:33;94556.91;;;7.20;100.00
42247;BME280;27913;42.722;23.268;2022-12-17T07:56:18;94523.53;;;6.83;100.00
42247;BME280;27913;42.722;23.268;2022-12-17T07:59:02;94681.09;;;7.86;100.00
42247;BME280;27913;42.722;23.268;2022-12-17T08:01:47;94708.47;;;7.83;100.00
42247;BME280;27913;42.722;23.268;2022-12-17T08:04:31;94846.19;;;8.55;100.00
42247;BME280;27913;42.722;23.268;2022-12-17T08:07:15;94874.03;;;8.56;100.00
42247;BME280;27913;42.722;23.268;2022-12-17T08:09:59;94884.53;;;8.56;100.00
42247;BME280;27913;42.722;23.268;2022-12-17T08:12:57;94883.94;;;8.45;100.00
42247;BME280;27913;42.722;23.268;2022-12-17T08:15:42;94809.50;;;7.93;100.00
42247;BME280;27913;42.722;23.268;2022-12-17T08:18:26;94747.84;;;7.43;100.00
42247;BME280;27913;42.722;23.268;2022-12-17T08:21:10;94896.13;;;8.15;100.00
42247;BME280;27913;42.722;23.268;2022-12-17T08:23:54;94938.91;;;8.30;100.00
42247;BME280;27913;42.722;23.268;2022-12-17T08:26:38;94911.53;;;8.33;100.00
42247;BME280;27913;42.722;23.268;2022-12-17T08:29:22;94796.66;;;8.06;100.00
42247;BME280;27913;42.722;23.268;2022-12-17T08:32:06;94887.38;;;8.69;100.00
42247;BME280;27913;42.722;23.268;2022-12-17T08:34:50;94629.03;;;7.14;100.00
42247;BME280;27913;42.722;23.268;2022-12-17T08:37:35;94898.47;;;8.72;100.00
42247;BME280;27913;42.722;23.268;2022-12-17T08:40:19;94909.50;;;8.67;100.00
42247;BME280;27913;42.722;23.268;2022-12-17T08:43:03;94923.25;;;8.69;100.00
42247;BME280;27913;42.722;23.268;2022-12-17T08:45:48;94916.50;;;8.75;100.00
42247;BME280;27913;42.722;23.268;2022-12-17T08:48:32;94768.66;;;8.07;100.00
42247;BME280;27913;42.722;23.268;2022-12-17T08:51:17;94929.06;;;9.48;100.00
42247;BME280;27913;42.722;23.268;2022-12-17T08:54:01;94887.50;;;9.52;100.00
42247;BME280;27913;42.722;23.268;2022-12-17T08:56:45;94941.69;;;9.90;100.00
42247;BME280;27913;42.722;23.268;2022-12-17T08:59:29;94922.72;;;9.95;100.00
42247;BME280;27913;42.722;23.268;2022-12-17T09:02:13;94959.16;;;9.98;100.00
42247;BME280;27913;42.722;23.268;2022-12-17T09:04:57;94918.88;;;9.75;100.00
42247;BME280;27913;42.722;23.268;2022-12-17T09:07:41;94953.28;;;9.81;100.00
42247;BME280;27913;42.722;23.268;2022-12-17T09:10:25;94954.28;;;9.79;100.00
42247;BME280;27913;42.722;23.268;2022-12-17T09:13:09;94951.03;;;9.77;100.00
42247;BME280;27913;42.722;23.268;2022-12-17T09:15:54;94969.66;;;9.83;100.00
42247;BME280;27913;42.722;23.268;2022-12-17T09:18:39;94930.56;;;9.58;100.00
42247;BME280;27913;42.722;23.268;2022-12-17T09:21:23;94958.06;;;9.92;100.00
42247;BME280;27913;42.722;23.268;2022-12-17T09:24:08;94976.38;;;9.85;100.00
42247;BME280;27913;42.722;23.268;2022-12-17T09:26:52;94756.63;;;8.36;100.00
42247;BME280;27913;42.722;23.268;2022-12-17T09:29:36;94998.31;;;9.62;100.00
42247;BME280;27913;42.722;23.268;2022-12-17T09:32:20;94979.63;;;9.42;100.00
42247;BME280;27913;42.722;23.268;2022-12-17T09:35:04;94799.72;;;8.10;100.00
42247;BME280;27913;42.722;23.268;2022-12-17T09:37:55;94992.84;;;9.34;100.00
42247;BME280;27913;42.722;23.268;2022-12-17T09:40:40;95036.88;;;9.62;100.00
42247;BME280;27913;42.722;23.268;2022-12-17T09:49:17;94983.88;;;9.28;100.00
42247;BME280;27913;42.722;23.268;2022-12-17T09:52:13;94894.88;;;8.73;100.00
42247;BME280;27913;42.722;23.268;2022-12-17T09:55:00;94986.44;;;9.51;100.00
42247;BME280;27913;42.722;23.268;2022-12-17T09:57:45;95005.81;;;9.50;100.00
42247;BME280;27913;42.722;23.268;2022-12-17T10:00:33;94619.59;;;7.28;100.00
42247;BME280;27913;42.722;23.268;2022-12-17T10:03:19;94925.13;;;9.14;100.00
42247;BME280;27913;42.722;23.268;2022-12-17T10:06:24;94932.66;;;9.17;100.00
42247;BME280;27913;42.722;23.268;2022-12-17T10:09:13;94972.59;;;9.27;100.00
42247;BME280;27913;42.722;23.268;2022-12-17T10:12:00;94986.88;;;9.25;100.00
42247;BME280;27913;42.722;23.268;2022-12-17T10:14:51;94983.41;;;9.24;100.00
42247;BME280;27913;42.722;23.268;2022-12-17T10:17:35;94908.28;;;8.78;100.00
42247;BME280;27913;42.722;23.268;2022-12-17T10:23:24;95034.41;;;9.45;100.00
42247;BME280;27913;42.722;23.268;2022-12-17T10:26:27;95034.94;;;9.40;100.00
42247;BME280;27913;42.722;23.268;2022-12-17T10:29:16;95022.97;;;9.23;100.00
42247;BME280;27913;42.722;23.268;2022-12-17T10:35:06;95026.94;;;9.18;100.00
42247;BME280;27913;42.722;23.268;2022-12-17T10:37:51;94918.84;;;8.69;100.00
42247;BME280;27913;42.722;23.268;2022-12-17T10:40:35;94632.63;;;6.89;100.00
42247;BME280;27913;42.722;23.268;2022-12-17T10:43:40;94800.22;;;7.90;100.00
42247;BME280;27913;42.722;23.268;2022-12-17T10:46:29;94983.03;;;9.12;100.00
42247;BME280;27913;42.722;23.268;2022-12-17T10:49:18;94838.31;;;8.16;100.00
42247;BME280;27913;42.722;23.268;2022-12-17T10:52:24;94975.63;;;9.16;100.00
42247;BME280;27913;42.722;23.268;2022-12-17T10:55:23;94904.84;;;8.77;100.00
42247;BME280;27913;42.722;23.268;2022-12-17T10:58:20;94883.50;;;8.80;100.00
42247;BME280;27913;42.722;23.268;2022-12-17T11:01:08;94960.19;;;9.36;100.00
42247;BME280;27913;42.722;23.268;2022-12-17T11:03:57;94908.06;;;9.18;100.00
42247;BME280;27913;42.722;23.268;2022-12-17T11:06:50;94830.88;;;8.82;100.00
42247;BME280;27913;42.722;23.268;2022-12-17T11:12:29;94932.94;;;9.68;100.00
42247;BME280;27913;42.722;23.268;2022-12-17T11:15:23;94930.31;;;9.68;100.00
42247;BME280;27913;42.722;23.268;2022-12-17T11:18:14;94871.59;;;9.23;100.00
42247;BME280;27913;42.722;23.268;2022-12-17T11:21:09;94941.97;;;9.65;100.00
42247;BME280;27913;42.722;23.268;2022-12-17T11:23:56;94969.41;;;9.77;100.00
42247;BME280;27913;42.722;23.268;2022-12-17T11:26:42;94901.44;;;9.37;100.00
42247;BME280;27913;42.722;23.268;2022-12-17T11:29:27;94784.59;;;8.59;100.00
42247;BME280;27913;42.722;23.268;2022-12-17T11:35:23;94948.50;;;9.39;100.00
42247;BME280;27913;42.722;23.268;2022-12-17T11:55:39;94929.84;;;9.34;100.00
42247;BME280;27913;42.722;23.268;2022-12-17T11:58:46;94927.69;;;9.22;100.00
42247;BME280;27913;42.722;23.268;2022-12-17T12:10:21;94954.56;;;9.39;100.00
42247;BME280;27913;42.722;23.268;2022-12-17T12:16:26;94997.41;;;9.55;100.00
42247;BME280;27913;42.722;23.268;2022-12-17T12:19:22;94998.84;;;9.58;100.00
42247;BME280;27913;42.722;23.268;2022-12-17T12:22:24;94993.25;;;9.61;100.00
42247;BME280;27913;42.722;23.268;2022-12-17T12:25:18;94952.78;;;9.40;100.00
42247;BME280;27913;42.722;23.268;2022-12-17T12:28:16;94773.50;;;8.33;100.00
42247;BME280;27913;42.722;23.268;2022-12-17T12:34:13;94728.13;;;8.18;100.00
42247;BME280;27913;42.722;23.268;2022-12-17T12:37:02;95009.41;;;9.95;100.00
42247;BME280;27913;42.722;23.268;2022-12-17T12:39:56;94769.28;;;8.63;100.00
42247;BME280;27913;42.722;23.268;2022-12-17T12:43:02;94757.28;;;8.68;100.00
42247;BME280;27913;42.722;23.268;2022-12-17T12:45:57;94992.97;;;10.23;100.00
42247;BME280;27913;42.722;23.268;2022-12-17T12:49:24;94725.91;;;8.60;100.00
42247;BME280;27913;42.722;23.268;2022-12-17T12:52:21;94986.47;;;10.19;100.00
42247;BME280;27913;42.722;23.268;2022-12-17T12:55:07;94928.06;;;9.64;100.00
42247;BME280;27913;42.722;23.268;2022-12-17T12:58:19;94996.72;;;9.98;100.00
42247;BME280;27913;42.722;23.268;2022-12-17T13:01:35;94992.69;;;9.96;100.00
42247;BME280;27913;42.722;23.268;2022-12-17T13:07:20;94858.81;;;9.05;100.00
42247;BME280;27913;42.722;23.268;2022-12-17T13:09:54;94995.03;;;9.90;100.00
42247;BME280;27913;42.722;23.268;2022-12-17T13:12:31;94967.53;;;9.71;100.00
42247;BME280;27913;42.722;23.268;2022-12-17T13:17:38;95014.06;;;9.93;100.00
42247;BME280;27913;42.722;23.268;2022-12-17T13:20:37;94963.81;;;9.65;100.00
42247;BME280;27913;42.722;23.268;2022-12-17T13:25:34;95010.88;;;9.97;100.00
42247;BME280;27913;42.722;23.268;2022-12-17T13:28:00;95000.56;;;9.96;100.00
42247;BME280;27913;42.722;23.268;2022-12-17T13:30:35;94995.13;;;9.97;100.00
42247;BME280;27913;42.722;23.268;2022-12-17T13:43:49;94965.09;;;9.70;100.00
42247;BME280;27913;42.722;23.268;2022-12-17T13:51:24;94968.81;;;9.45;100.00
42247;BME280;27913;42.722;23.268;2022-12-17T13:53:55;95041.69;;;9.88;100.00
42247;BME280;27913;42.722;23.268;2022-12-17T13:56:22;95061.34;;;9.93;100.00
42247;BME280;27913;42.722;23.268;2022-12-17T13:58:53;94922.28;;;9.24;100.00
42247;BME280;27913;42.722;23.268;2022-12-17T14:01:19;95037.97;;;9.98;100.00
42247;BME280;27913;42.722;23.268;2022-12-17T14:03:53;94842.09;;;8.76;100.00
42247;BME280;27913;42.722;23.268;2022-12-17T14:06:20;94947.25;;;9.35;100.00
42247;BME280;27913;42.722;23.268;2022-12-17T14:08:48;95046.00;;;9.96;100.00
42247;BME280;27913;42.722;23.268;2022-12-17T14:11:14;94812.97;;;8.55;100.00
42247;BME280;27913;42.722;23.268;2022-12-17T14:13:59;95040.41;;;9.84;100.00
42247;BME280;27913;42.722;23.268;2022-12-17T14:16:25;95043.66;;;9.86;100.00
42247;BME280;27913;42.722;23.268;2022-12-17T14:18:53;95063.72;;;9.87;100.00
42247;BME280;27913;42.722;23.268;2022-12-17T14:21:20;95053.81;;;9.89;100.00
42247;BME280;27913;42.722;23.268;2022-12-17T14:23:47;95065.97;;;9.90;100.00
42247;BME280;27913;42.722;23.268;2022-12-17T14:26:14;94997.31;;;9.48;100.00
42247;BME280;27913;42.722;23.268;2022-12-17T14:28:49;95067.75;;;9.90;100.00
42247;BME280;27913;42.722;23.268;2022-12-17T14:31:25;95010.72;;;9.53;100.00
42247;BME280;27913;42.722;23.268;2022-12-17T14:34:08;95060.91;;;9.89;100.00
42247;BME280;27913;42.722;23.268;2022-12-17T14:36:36;95053.19;;;9.87;100.00
42247;BME280;27913;42.722;23.268;2022-12-17T14:39:05;95060.97;;;9.81;100.00
42247;BME280;27913;42.722;23.268;2022-12-17T14:41:39;94937.78;;;8.95;100.00
42247;BME280;27913;42.722;23.268;2022-12-17T14:44:25;94974.59;;;9.02;100.00
42247;BME280;27913;42.722;23.268;2022-12-17T14:47:05;95085.41;;;9.66;100.00
42247;BME280;27913;42.722;23.268;2022-12-17T14:49:31;94991.34;;;9.01;100.00
42247;BME280;27913;42.722;23.268;2022-12-17T14:51:56;94963.81;;;8.81;100.00
42247;BME280;27913;42.722;23.268;2022-12-17T14:56:54;94861.53;;;8.19;100.00
42247;BME280;27913;42.722;23.268;2022-12-17T15:01:51;95094.44;;;9.63;100.00
42247;BME280;27913;42.722;23.268;2022-12-17T15:04:17;95106.59;;;9.64;100.00
42247;BME280;27913;42.722;23.268;2022-12-17T15:06:42;95099.06;;;9.61;100.00
42247;BME280;27913;42.722;23.268;2022-12-17T15:09:10;95100.72;;;9.62;100.00
42247;BME280;27913;42.722;23.268;2022-12-17T15:11:36;95090.72;;;9.58;100.00
42247;BME280;27913;42.722;23.268;2022-12-17T15:14:02;95106.66;;;9.56;100.00
42247;BME280;27913;42.722;23.268;2022-12-17T15:16:27;94868.00;;;8.08;100.00
42247;BME280;27913;42.722;23.268;2022-12-17T15:18:53;95119.50;;;9.51;100.00
42247;BME280;27913;42.722;23.268;2022-12-17T15:21:19;95051.97;;;9.06;100.00
42247;BME280;27913;42.722;23.268;2022-12-17T15:23:45;95069.97;;;9.09;100.00
42247;BME280;27913;42.722;23.268;2022-12-17T15:26:11;94838.03;;;7.64;100.00
42247;BME280;27913;42.722;23.268;2022-12-17T15:28:39;95136.34;;;9.41;100.00
42247;BME280;27913;42.722;23.268;2022-12-17T15:31:05;95127.88;;;9.31;100.00
42247;BME280;27913;42.722;23.268;2022-12-17T15:33:30;95143.09;;;9.36;100.00
42247;BME280;27913;42.722;23.268;2022-12-17T15:35:57;95089.75;;;8.97;100.00
42247;BME280;27913;42.722;23.268;2022-12-17T15:38:24;95137.63;;;9.22;100.00